sensor_id;sensor_type;location;lat;lon;timestamp;pressure;altitude;pressure_sealevel;temperature;humidity
23164;BME280;31429;42.674;23.350;2023-07-20T00:00:51;94483.28;;;22.73;100.00
23164;BME280;31429;42.674;23.350;2023-07-20T00:01:53;94482.41;;;22.63;100.00
23164;BME280;31429;42.674;23.350;2023-07-20T00:03:10;94491.22;;;22.62;100.00
23164;BME280;31429;42.674;23.350;2023-07-20T00:04:13;94483.13;;;22.65;100.00
23164;BME280;31429;42.674;23.350;2023-07-20T00:05:14;94481.06;;;22.68;100.00
23164;BME280;31429;42.674;23.350;2023-07-20T00:06:14;94483.81;;;22.76;100.00
23164;BME280;31429;42.674;23.350;2023-07-20T00:07:15;94477.09;;;22.83;100.00
23164;BME280;31429;42.674;23.350;2023-07-20T00:08:16;94482.97;;;22.85;100.00
23164;BME280;31429;42.674;23.350;2023-07-20T00:09:16;94479.81;;;22.92;100.00
23164;BME280;31429;42.674;23.350;2023-07-20T00:10:17;94476.94;;;22.95;100.00
23164;BME280;31429;42.674;23.350;2023-07-20T00:11:18;94474.91;;;22.98;100.00
23164;BME280;31429;42.674;23.350;2023-07-20T00:12:19;94479.81;;;22.92;100.00
23164;BME280;31429;42.674;23.350;2023-07-20T00:13:19;94485.03;;;22.82;100.00
23164;BME280;31429;42.674;23.350;2023-07-20T00:14:21;94483.00;;;22.76;100.00
23164;BME280;31429;42.674;23.350;2023-07-20T00:15:22;94478.88;;;22.64;100.00
23164;BME280;31429;42.674;23.350;2023-07-20T00:16:23;94483.13;;;22.65;100.00
23164;BME280;31429;42.674;23.350;2023-07-20T00:17:23;94483.13;;;22.65;100.00
23164;BME280;31429;42.674;23.350;2023-07-20T00:18:24;94485.19;;;22.71;100.00
23164;BME280;31429;42.674;23.350;2023-07-20T00:19:26;94482.03;;;22.77;100.00
23164;BME280;31429;42.674;23.350;2023-07-20T00:20:27;94482.44;;;22.82;100.00
23164;BME280;31429;42.674;23.350;2023-07-20T00:21:28;94487.53;;;22.83;100.00
23164;BME280;31429;42.674;23.350;2023-07-20T00:22:28;94487.53;;;22.83;100.00
23164;BME280;31429;42.674;23.350;2023-07-20T00:23:29;94487.53;;;22.83;100.00
23164;BME280;31429;42.674;23.350;2023-07-20T00:24:30;94490.53;;;22.79;100.00
23164;BME280;31429;42.674;23.350;2023-07-20T00:25:31;94491.50;;;22.78;100.00
23164;BME280;31429;42.674;23.350;2023-07-20T00:26:32;94492.84;;;22.82;100.00
23164;BME280;31429;42.674;23.350;2023-07-20T00:27:32;94489.84;;;22.86;100.00
23164;BME280;31429;42.674;23.350;2023-07-20T00:28:33;94493.84;;;22.81;100.00
23164;BME280;31429;42.674;23.350;2023-07-20T00:29:33;94497.53;;;22.78;100.00
23164;BME280;31429;42.674;23.350;2023-07-20T00:30:37;94489.44;;;22.72;100.00
23164;BME280;31429;42.674;23.350;2023-07-20T00:31:38;94494.25;;;22.67;100.00
23164;BME280;31429;42.674;23.350;2023-07-20T00:32:39;94487.22;;;22.58;100.00
23164;BME280;31429;42.674;23.350;2023-07-20T00:33:39;94488.84;;;22.49;100.00
23164;BME280;31429;42.674;23.350;2023-07-20T00:34:41;94491.59;;;22.48;100.00
23164;BME280;31429;42.674;23.350;2023-07-20T00:35:42;94491.47;;;22.49;100.00
23164;BME280;31429;42.674;23.350;2023-07-20T00:36:43;94488.59;;;22.52;100.00
23164;BME280;31429;42.674;23.350;2023-07-20T00:37:44;94486.91;;;22.51;100.00
23164;BME280;31429;42.674;23.350;2023-07-20T00:38:44;94485.16;;;22.52;100.00
23164;BME280;31429;42.674;23.350;2023-07-20T00:39:45;94481.72;;;22.51;100.00
23164;BME280;31429;42.674;23.350;2023-07-20T00:40:45;94490.50;;;22.50;100.00
23164;BME280;31429;42.674;23.350;2023-07-20T00:41:46;94493.66;;;22.44;100.00
23164;BME280;31429;42.674;23.350;2023-07-20T00:42:47;94502.81;;;22.39;100.00
23164;BME280;31429;42.674;23.350;2023-07-20T00:43:47;94491.31;;;22.41;100.00
23164;BME280;31429;42.674;23.350;2023-07-20T00:44:48;94489.69;;;22.50;100.00
23164;BME280;31429;42.674;23.350;2023-07-20T00:45:49;94486.25;;;22.49;100.00
23164;BME280;31429;42.674;23.350;2023-07-20T00:46:50;94481.84;;;22.50;100.00
23164;BME280;31429;42.674;23.350;2023-07-20T00:47:50;94482.25;;;22.45;100.00
23164;BME280;31429;42.674;23.350;2023-07-20T00:48:51;94479.66;;;22.36;100.00
23164;BME280;31429;42.674;23.350;2023-07-20T00:49:54;94484.97;;;22.34;100.00
23164;BME280;31429;42.674;23.350;2023-07-20T00:50:55;94482.09;;;22.37;100.00
23164;BME280;31429;42.674;23.350;2023-07-20T00:51:56;94479.38;;;22.39;100.00
23164;BME280;31429;42.674;23.350;2023-07-20T00:52:57;94478.56;;;22.38;100.00
23164;BME280;31429;42.674;23.350;2023-07-20T00:53:58;94475.38;;;22.34;100.00
23164;BME280;31429;42.674;23.350;2023-07-20T00:54:58;94477.88;;;22.36;100.00
23164;BME280;31429;42.674;23.350;2023-07-20T00:55:59;94474.72;;;22.32;100.00
23164;BME280;31429;42.674;23.350;2023-07-20T00:57:01;94464.69;;;22.28;100.00
23164;BME280;31429;42.674;23.350;2023-07-20T00:58:01;94468.78;;;22.21;100.00
23164;BME280;31429;42.674;23.350;2023-07-20T00:59:02;94460.03;;;22.22;100.00
23164;BME280;31429;42.674;23.350;2023-07-20T01:00:04;94461.81;;;22.21;100.00
23164;BME280;31429;42.674;23.350;2023-07-20T01:01:06;94462.06;;;22.18;100.00
23164;BME280;31429;42.674;23.350;2023-07-20T01:02:07;94461.25;;;22.18;100.00
23164;BME280;31429;42.674;23.350;2023-07-20T01:03:08;94461.22;;;22.08;100.00
23164;BME280;31429;42.674;23.350;2023-07-20T01:04:08;94459.81;;;21.95;100.00
23164;BME280;31429;42.674;23.350;2023-07-20T01:05:11;94462.69;;;21.92;100.00
23164;BME280;31429;42.674;23.350;2023-07-20T01:06:25;94462.31;;;21.96;100.00
23164;BME280;31429;42.674;23.350;2023-07-20T01:07:31;94453.97;;;22.02;100.00
23164;BME280;31429;42.674;23.350;2023-07-20T01:08:37;94470.28;;;22.04;100.00
23164;BME280;31429;42.674;23.350;2023-07-20T01:09:43;94465.31;;;22.01;100.00
23164;BME280;31429;42.674;23.350;2023-07-20T01:10:51;94466.94;;;21.93;100.00
23164;BME280;31429;42.674;23.350;2023-07-20T01:11:59;94483.00;;;21.77;100.00
23164;BME280;31429;42.674;23.350;2023-07-20T01:13:03;94482.59;;;21.72;100.00
23164;BME280;31429;42.674;23.350;2023-07-20T01:14:07;94476.28;;;21.74;100.00
23164;BME280;31429;42.674;23.350;2023-07-20T01:15:08;94477.97;;;21.75;100.00
23164;BME280;31429;42.674;23.350;2023-07-20T01:16:09;94479.88;;;21.73;100.00
23164;BME280;31429;42.674;23.350;2023-07-20T01:17:09;94485.34;;;21.70;100.00
23164;BME280;31429;42.674;23.350;2023-07-20T01:18:10;94488.78;;;21.71;100.00
23164;BME280;31429;42.674;23.350;2023-07-20T01:19:12;94482.59;;;21.72;100.00
23164;BME280;31429;42.674;23.350;2023-07-20T01:20:19;94484.25;;;21.73;100.00
23164;BME280;31429;42.674;23.350;2023-07-20T01:21:24;94486.03;;;21.72;100.00
23164;BME280;31429;42.674;23.350;2023-07-20T01:22:38;94483.69;;;21.69;100.00
23164;BME280;31429;42.674;23.350;2023-07-20T01:24:18;94473.28;;;21.69;100.00
23164;BME280;31429;42.674;23.350;2023-07-20T01:25:39;94466.41;;;21.68;100.00
23164;BME280;31429;42.674;23.350;2023-07-20T01:27:00;94462.34;;;21.75;100.00
23164;BME280;31429;42.674;23.350;2023-07-20T01:28:28;94460.16;;;21.71;100.00
23164;BME280;31429;42.674;23.350;2023-07-20T01:29:46;94464.72;;;21.58;100.00
23164;BME280;31429;42.674;23.350;2023-07-20T01:30:56;94463.88;;;21.48;100.00
23164;BME280;31429;42.674;23.350;2023-07-20T01:32:02;94472.88;;;21.44;100.00
23164;BME280;31429;42.674;23.350;2023-07-20T01:33:05;94472.31;;;21.40;100.00
23164;BME280;31429;42.674;23.350;2023-07-20T01:34:08;94474.22;;;21.38;100.00
23164;BME280;31429;42.674;23.350;2023-07-20T01:35:13;94474.06;;;21.30;100.00
23164;BME280;31429;42.674;23.350;2023-07-20T01:36:16;94477.16;;;21.24;100.00
23164;BME280;31429;42.674;23.350;2023-07-20T01:37:18;94481.16;;;21.28;100.00
23164;BME280;31429;42.674;23.350;2023-07-20T01:38:21;94481.16;;;21.28;100.00
23164;BME280;31429;42.674;23.350;2023-07-20T01:39:23;94475.97;;;21.28;100.00
23164;BME280;31429;42.674;23.350;2023-07-20T01:40:25;94479.94;;;21.32;100.00
23164;BME280;31429;42.674;23.350;2023-07-20T01:41:26;94482.50;;;21.23;100.00
23164;BME280;31429;42.674;23.350;2023-07-20T01:42:26;94481.69;;;21.22;100.00
23164;BME280;31429;42.674;23.350;2023-07-20T01:43:27;94477.66;;;21.18;100.00
23164;BME280;31429;42.674;23.350;2023-07-20T01:44:28;94475.22;;;21.16;100.00
23164;BME280;31429;42.674;23.350;2023-07-20T01:45:29;94466.06;;;21.22;100.00
23164;BME280;31429;42.674;23.350;2023-07-20T01:46:30;94464.81;;;21.16;100.00
23164;BME280;31429;42.674;23.350;2023-07-20T01:47:32;94463.41;;;21.12;100.00
23164;BME280;31429;42.674;23.350;2023-07-20T01:48:32;94472.44;;;21.08;100.00
23164;BME280;31429;42.674;23.350;2023-07-20T01:49:33;94475.97;;;21.07;100.00
23164;BME280;31429;42.674;23.350;2023-07-20T01:50:34;94465.44;;;21.09;100.00
23164;BME280;31429;42.674;23.350;2023-07-20T01:51:34;94461.22;;;21.08;100.00
23164;BME280;31429;42.674;23.350;2023-07-20T01:52:35;94471.00;;;21.04;100.00
23164;BME280;31429;42.674;23.350;2023-07-20T01:53:36;94463.81;;;21.08;100.00
23164;BME280;31429;42.674;23.350;2023-07-20T01:54:37;94461.78;;;21.11;100.00
23164;BME280;31429;42.674;23.350;2023-07-20T01:55:37;94468.53;;;21.03;100.00
23164;BME280;31429;42.674;23.350;2023-07-20T01:56:38;94474.78;;;21.00;100.00
23164;BME280;31429;42.674;23.350;2023-07-20T01:57:39;94467.63;;;20.93;100.00
23164;BME280;31429;42.674;23.350;2023-07-20T01:58:39;94471.56;;;20.87;100.00
23164;BME280;31429;42.674;23.350;2023-07-20T01:59:40;94464.16;;;20.83;100.00
23164;BME280;31429;42.674;23.350;2023-07-20T02:00:41;94474.56;;;20.83;100.00
23164;BME280;31429;42.674;23.350;2023-07-20T02:01:41;94465.53;;;20.87;100.00
23164;BME280;31429;42.674;23.350;2023-07-20T02:02:43;94462.44;;;20.93;100.00
23164;BME280;31429;42.674;23.350;2023-07-20T02:03:44;94459.97;;;20.91;100.00
23164;BME280;31429;42.674;23.350;2023-07-20T02:04:45;94462.69;;;20.90;100.00
23164;BME280;31429;42.674;23.350;2023-07-20T02:05:45;94463.25;;;20.93;100.00
23164;BME280;31429;42.674;23.350;2023-07-20T02:06:46;94455.28;;;20.85;100.00
23164;BME280;31429;42.674;23.350;2023-07-20T02:07:46;94454.69;;;20.82;100.00
23164;BME280;31429;42.674;23.350;2023-07-20T02:08:47;94456.63;;;20.80;100.00
23164;BME280;31429;42.674;23.350;2023-07-20T02:09:48;94459.31;;;20.78;100.00
23164;BME280;31429;42.674;23.350;2023-07-20T02:10:49;94455.88;;;20.78;100.00
23164;BME280;31429;42.674;23.350;2023-07-20T02:11:50;94450.00;;;20.76;100.00
23164;BME280;31429;42.674;23.350;2023-07-20T02:12:50;94453.53;;;20.75;100.00
23164;BME280;31429;42.674;23.350;2023-07-20T02:13:51;94455.59;;;20.71;100.00
23164;BME280;31429;42.674;23.350;2023-07-20T02:14:52;94450.66;;;20.68;100.00
23164;BME280;31429;42.674;23.350;2023-07-20T02:15:53;94446.03;;;20.72;100.00
23164;BME280;31429;42.674;23.350;2023-07-20T02:16:54;94448.50;;;20.73;100.00
23164;BME280;31429;42.674;23.350;2023-07-20T02:17:59;94449.69;;;20.69;100.00
23164;BME280;31429;42.674;23.350;2023-07-20T02:19:00;94455.84;;;20.68;100.00
23164;BME280;31429;42.674;23.350;2023-07-20T02:20:00;94451.25;;;20.60;100.00
23164;BME280;31429;42.674;23.350;2023-07-20T02:21:01;94455.31;;;20.53;100.00
23164;BME280;31429;42.674;23.350;2023-07-20T02:22:02;94453.41;;;20.55;100.00
23164;BME280;31429;42.674;23.350;2023-07-20T02:23:03;94454.38;;;20.54;100.00
23164;BME280;31429;42.674;23.350;2023-07-20T02:24:04;94459.44;;;20.56;100.00
23164;BME280;31429;42.674;23.350;2023-07-20T02:25:06;94457.28;;;20.61;100.00
23164;BME280;31429;42.674;23.350;2023-07-20T02:26:07;94460.94;;;20.58;100.00
23164;BME280;31429;42.674;23.350;2023-07-20T02:27:08;94449.88;;;20.56;100.00
23164;BME280;31429;42.674;23.350;2023-07-20T02:28:08;94454.63;;;20.51;100.00
23164;BME280;31429;42.674;23.350;2023-07-20T02:29:09;94452.63;;;20.44;100.00
23164;BME280;31429;42.674;23.350;2023-07-20T02:30:11;94450.41;;;20.39;100.00
23164;BME280;31429;42.674;23.350;2023-07-20T02:31:12;94449.59;;;20.39;100.00
23164;BME280;31429;42.674;23.350;2023-07-20T02:32:13;94450.78;;;20.35;100.00
23164;BME280;31429;42.674;23.350;2023-07-20T02:33:15;94444.19;;;20.31;100.00
23164;BME280;31429;42.674;23.350;2023-07-20T02:34:16;94455.66;;;20.28;100.00
23164;BME280;31429;42.674;23.350;2023-07-20T02:35:17;94454.00;;;20.27;100.00
23164;BME280;31429;42.674;23.350;2023-07-20T02:36:17;94449.75;;;20.26;100.00
23164;BME280;31429;42.674;23.350;2023-07-20T02:37:18;94445.25;;;20.28;100.00
23164;BME280;31429;42.674;23.350;2023-07-20T02:38:18;94446.19;;;20.27;100.00
23164;BME280;31429;42.674;23.350;2023-07-20T02:39:19;94449.88;;;20.25;100.00
23164;BME280;31429;42.674;23.350;2023-07-20T02:40:20;94441.47;;;20.21;100.00
23164;BME280;31429;42.674;23.350;2023-07-20T02:41:20;94441.34;;;20.23;100.00
23164;BME280;31429;42.674;23.350;2023-07-20T02:42:21;94439.00;;;20.20;100.00
23164;BME280;31429;42.674;23.350;2023-07-20T02:43:23;94432.16;;;20.19;100.00
23164;BME280;31429;42.674;23.350;2023-07-20T02:44:23;94435.56;;;20.19;100.00
23164;BME280;31429;42.674;23.350;2023-07-20T02:45:24;94429.44;;;20.20;100.00
23164;BME280;31429;42.674;23.350;2023-07-20T02:46:25;94425.19;;;20.19;100.00
23164;BME280;31429;42.674;23.350;2023-07-20T02:47:25;94431.22;;;20.20;100.00
23164;BME280;31429;42.674;23.350;2023-07-20T02:48:27;94427.09;;;20.17;100.00
23164;BME280;31429;42.674;23.350;2023-07-20T02:49:28;94422.75;;;20.18;100.00
23164;BME280;31429;42.674;23.350;2023-07-20T02:50:29;94413.16;;;20.18;100.00
23164;BME280;31429;42.674;23.350;2023-07-20T02:51:30;94416.47;;;20.20;100.00
23164;BME280;31429;42.674;23.350;2023-07-20T02:52:30;94417.84;;;20.24;100.00
23164;BME280;31429;42.674;23.350;2023-07-20T02:53:31;94415.75;;;20.18;100.00
23164;BME280;31429;42.674;23.350;2023-07-20T02:54:31;94412.84;;;20.12;100.00
23164;BME280;31429;42.674;23.350;2023-07-20T02:55:32;94418.59;;;20.15;100.00
23164;BME280;31429;42.674;23.350;2023-07-20T02:56:33;94419.66;;;20.13;100.00
23164;BME280;31429;42.674;23.350;2023-07-20T02:57:33;94424.41;;;20.07;100.00
23164;BME280;31429;42.674;23.350;2023-07-20T02:58:34;94424.53;;;20.06;100.00
23164;BME280;31429;42.674;23.350;2023-07-20T02:59:39;94428.41;;;20.12;100.00
23164;BME280;31429;42.674;23.350;2023-07-20T03:00:39;94421.06;;;20.17;100.00
23164;BME280;31429;42.674;23.350;2023-07-20T03:01:40;94421.91;;;20.17;100.00
23164;BME280;31429;42.674;23.350;2023-07-20T03:02:42;94419.06;;;20.20;100.00
23164;BME280;31429;42.674;23.350;2023-07-20T03:03:45;94422.84;;;20.16;100.00
23164;BME280;31429;42.674;23.350;2023-07-20T03:04:48;94421.91;;;20.17;100.00
23164;BME280;31429;42.674;23.350;2023-07-20T03:05:49;94426.84;;;20.20;100.00
23164;BME280;31429;42.674;23.350;2023-07-20T03:06:54;94427.34;;;20.25;100.00
23164;BME280;31429;42.674;23.350;2023-07-20T03:07:55;94424.34;;;20.30;100.00
23164;BME280;31429;42.674;23.350;2023-07-20T03:08:56;94429.44;;;20.31;100.00
23164;BME280;31429;42.674;23.350;2023-07-20T03:09:58;94424.81;;;20.24;100.00
23164;BME280;31429;42.674;23.350;2023-07-20T03:10:59;94433.13;;;20.18;100.00
23164;BME280;31429;42.674;23.350;2023-07-20T03:12:00;94428.97;;;20.15;100.00
23164;BME280;31429;42.674;23.350;2023-07-20T03:13:01;94427.34;;;20.14;100.00
23164;BME280;31429;42.674;23.350;2023-07-20T03:14:02;94430.28;;;20.09;100.00
23164;BME280;31429;42.674;23.350;2023-07-20T03:15:03;94426.88;;;20.09;100.00
23164;BME280;31429;42.674;23.350;2023-07-20T03:16:04;94434.69;;;20.09;100.00
23164;BME280;31429;42.674;23.350;2023-07-20T03:17:05;94425.69;;;20.13;100.00
23164;BME280;31429;42.674;23.350;2023-07-20T03:18:06;94431.47;;;20.17;100.00
23164;BME280;31429;42.674;23.350;2023-07-20T03:19:07;94433.91;;;20.18;100.00
23164;BME280;31429;42.674;23.350;2023-07-20T03:20:09;94437.47;;;20.17;100.00
23164;BME280;31429;42.674;23.350;2023-07-20T03:21:11;94440.53;;;20.22;100.00
23164;BME280;31429;42.674;23.350;2023-07-20T03:22:12;94447.16;;;20.26;100.00
23164;BME280;31429;42.674;23.350;2023-07-20T03:23:13;94441.00;;;20.27;100.00
23164;BME280;31429;42.674;23.350;2023-07-20T03:24:13;94439.84;;;20.20;100.00
23164;BME280;31429;42.674;23.350;2023-07-20T03:25:14;94437.00;;;20.23;100.00
23164;BME280;31429;42.674;23.350;2023-07-20T03:26:14;94442.28;;;20.22;100.00
23164;BME280;31429;42.674;23.350;2023-07-20T03:27:15;94449.63;;;20.17;100.00
23164;BME280;31429;42.674;23.350;2023-07-20T03:28:16;94439.94;;;20.19;100.00
23164;BME280;31429;42.674;23.350;2023-07-20T03:29:16;94445.03;;;20.20;100.00
23164;BME280;31429;42.674;23.350;2023-07-20T03:30:17;94451.00;;;20.21;100.00
23164;BME280;31429;42.674;23.350;2023-07-20T03:31:18;94446.91;;;20.18;100.00
23164;BME280;31429;42.674;23.350;2023-07-20T03:32:18;94453.63;;;20.21;100.00
23164;BME280;31429;42.674;23.350;2023-07-20T03:33:19;94438.03;;;20.21;100.00
23164;BME280;31429;42.674;23.350;2023-07-20T03:34:21;94439.59;;;20.23;100.00
23164;BME280;31429;42.674;23.350;2023-07-20T03:35:22;94441.16;;;20.26;100.00
23164;BME280;31429;42.674;23.350;2023-07-20T03:36:22;94438.16;;;20.30;100.00
23164;BME280;31429;42.674;23.350;2023-07-20T03:37:23;94437.72;;;20.25;100.00
23164;BME280;31429;42.674;23.350;2023-07-20T03:38:24;94439.00;;;20.20;100.00
23164;BME280;31429;42.674;23.350;2023-07-20T03:39:25;94446.44;;;20.13;100.00
23164;BME280;31429;42.674;23.350;2023-07-20T03:40:26;94443.50;;;20.18;100.00
23164;BME280;31429;42.674;23.350;2023-07-20T03:41:26;94451.59;;;20.24;100.00
23164;BME280;31429;42.674;23.350;2023-07-20T03:42:27;94448.56;;;20.30;100.00
23164;BME280;31429;42.674;23.350;2023-07-20T03:43:28;94449.00;;;20.35;100.00
23164;BME280;31429;42.674;23.350;2023-07-20T03:44:29;94446.97;;;20.39;100.00
23164;BME280;31429;42.674;23.350;2023-07-20T03:45:29;94451.09;;;20.41;100.00
23164;BME280;31429;42.674;23.350;2023-07-20T03:46:30;94440.13;;;20.49;100.00
23164;BME280;31429;42.674;23.350;2023-07-20T03:47:31;94451.88;;;20.53;100.00
23164;BME280;31429;42.674;23.350;2023-07-20T03:48:33;94451.25;;;20.60;100.00
23164;BME280;31429;42.674;23.350;2023-07-20T03:49:35;94451.84;;;20.64;100.00
23164;BME280;31429;42.674;23.350;2023-07-20T03:50:36;94448.63;;;20.72;100.00
23164;BME280;31429;42.674;23.350;2023-07-20T03:51:36;94453.88;;;20.81;100.00
23164;BME280;31429;42.674;23.350;2023-07-20T03:52:37;94452.28;;;20.90;100.00
23164;BME280;31429;42.674;23.350;2023-07-20T03:53:38;94449.00;;;20.88;100.00
23164;BME280;31429;42.674;23.350;2023-07-20T03:54:39;94455.38;;;20.84;100.00
23164;BME280;31429;42.674;23.350;2023-07-20T03:55:40;94451.16;;;20.83;100.00
23164;BME280;31429;42.674;23.350;2023-07-20T03:56:44;94448.44;;;20.84;100.00
23164;BME280;31429;42.674;23.350;2023-07-20T03:57:44;94450.78;;;20.87;100.00
23164;BME280;31429;42.674;23.350;2023-07-20T03:58:45;94447.91;;;20.90;100.00
23164;BME280;31429;42.674;23.350;2023-07-20T04:02:52;94459.28;;;21.10;100.00
23164;BME280;31429;42.674;23.350;2023-07-20T04:03:53;94459.75;;;21.04;100.00
23164;BME280;31429;42.674;23.350;2023-07-20T04:04:55;94460.75;;;21.03;100.00
23164;BME280;31429;42.674;23.350;2023-07-20T04:05:55;94460.47;;;21.06;100.00
23164;BME280;31429;42.674;23.350;2023-07-20T04:06:56;94460.75;;;21.03;100.00
23164;BME280;31429;42.674;23.350;2023-07-20T04:07:56;94456.34;;;21.03;100.00
23164;BME280;31429;42.674;23.350;2023-07-20T04:08:57;94451.84;;;21.05;100.00
23164;BME280;31429;42.674;23.350;2023-07-20T04:09:58;94451.13;;;21.03;100.00
23164;BME280;31429;42.674;23.350;2023-07-20T04:11:01;94449.63;;;21.01;100.00
23164;BME280;31429;42.674;23.350;2023-07-20T04:12:01;94446.09;;;21.02;100.00
23164;BME280;31429;42.674;23.350;2023-07-20T04:13:02;94447.75;;;21.03;100.00
23164;BME280;31429;42.674;23.350;2023-07-20T04:14:03;94452.94;;;21.03;100.00
23164;BME280;31429;42.674;23.350;2023-07-20T04:15:04;94453.41;;;21.08;100.00
23164;BME280;31429;42.674;23.350;2023-07-20T04:16:05;94457.25;;;21.13;100.00
23164;BME280;31429;42.674;23.350;2023-07-20T04:17:06;94450.84;;;21.17;100.00
23164;BME280;31429;42.674;23.350;2023-07-20T04:18:06;94452.09;;;21.23;100.00
23164;BME280;31429;42.674;23.350;2023-07-20T04:19:07;94447.34;;;21.28;100.00
23164;BME280;31429;42.674;23.350;2023-07-20T04:20:10;94442.44;;;21.35;100.00
23164;BME280;31429;42.674;23.350;2023-07-20T04:21:11;94444.41;;;21.42;100.00
23164;BME280;31429;42.674;23.350;2023-07-20T04:22:11;94440.06;;;21.52;100.00
23164;BME280;31429;42.674;23.350;2023-07-20T04:23:12;94435.44;;;21.56;100.00
23164;BME280;31429;42.674;23.350;2023-07-20T04:24:13;94447.59;;;21.55;100.00
23164;BME280;31429;42.674;23.350;2023-07-20T04:25:13;94440.13;;;21.62;100.00
23164;BME280;31429;42.674;23.350;2023-07-20T04:26:14;94443.25;;;21.65;100.00
23164;BME280;31429;42.674;23.350;2023-07-20T04:27:14;94441.88;;;21.61;100.00
23164;BME280;31429;42.674;23.350;2023-07-20T04:28:15;94437.25;;;21.65;100.00
23164;BME280;31429;42.674;23.350;2023-07-20T04:29:16;94435.31;;;21.67;100.00
23164;BME280;31429;42.674;23.350;2023-07-20T04:30:17;94431.53;;;21.71;100.00
23164;BME280;31429;42.674;23.350;2023-07-20T04:31:20;94434.66;;;21.74;100.00
23164;BME280;31429;42.674;23.350;2023-07-20T04:32:21;94432.22;;;21.83;100.00
23164;BME280;31429;42.674;23.350;2023-07-20T04:33:21;94437.63;;;21.91;100.00
23164;BME280;31429;42.674;23.350;2023-07-20T04:34:22;94435.91;;;21.80;100.00
23164;BME280;31429;42.674;23.350;2023-07-20T04:35:49;94442.34;;;21.86;100.00
23164;BME280;31429;42.674;23.350;2023-07-20T04:36:50;94438.56;;;21.90;100.00
23164;BME280;31429;42.674;23.350;2023-07-20T04:37:50;94444.09;;;21.96;100.00
23164;BME280;31429;42.674;23.350;2023-07-20T04:38:51;94438.34;;;22.02;100.00
23164;BME280;31429;42.674;23.350;2023-07-20T04:39:51;94434.78;;;22.13;100.00
23164;BME280;31429;42.674;23.350;2023-07-20T04:40:52;94437.56;;;22.30;100.00
23164;BME280;31429;42.674;23.350;2023-07-20T04:41:53;94439.06;;;22.33;100.00
23164;BME280;31429;42.674;23.350;2023-07-20T04:42:53;94432.63;;;22.37;100.00
23164;BME280;31429;42.674;23.350;2023-07-20T04:43:54;94430.41;;;22.42;100.00
23164;BME280;31429;42.674;23.350;2023-07-20T04:44:54;94431.41;;;22.41;100.00
23164;BME280;31429;42.674;23.350;2023-07-20T04:45:55;94430.41;;;22.42;100.00
23164;BME280;31429;42.674;23.350;2023-07-20T04:46:55;94434.41;;;22.46;100.00
23164;BME280;31429;42.674;23.350;2023-07-20T04:47:56;94441.41;;;22.55;100.00
23164;BME280;31429;42.674;23.350;2023-07-20T04:48:57;94434.41;;;22.46;100.00
23164;BME280;31429;42.674;23.350;2023-07-20T04:49:58;94436.47;;;22.52;100.00
23164;BME280;31429;42.674;23.350;2023-07-20T04:51:00;94432.59;;;22.56;100.00
23164;BME280;31429;42.674;23.350;2023-07-20T04:52:00;94433.19;;;22.69;100.00
23164;BME280;31429;42.674;23.350;2023-07-20T04:53:03;94435.81;;;22.69;100.00
23164;BME280;31429;42.674;23.350;2023-07-20T04:54:03;94439.75;;;22.73;100.00
23164;BME280;31429;42.674;23.350;2023-07-20T04:55:05;94436.75;;;22.78;100.00
23164;BME280;31429;42.674;23.350;2023-07-20T04:56:05;94440.31;;;22.86;100.00
23164;BME280;31429;42.674;23.350;2023-07-20T04:57:11;94438.81;;;22.84;100.00
23164;BME280;31429;42.674;23.350;2023-07-20T04:58:12;94432.78;;;22.83;100.00
23164;BME280;31429;42.674;23.350;2023-07-20T04:59:13;94435.50;;;22.92;100.00
23164;BME280;31429;42.674;23.350;2023-07-20T05:00:14;94428.34;;;22.94;100.00
23164;BME280;31429;42.674;23.350;2023-07-20T05:01:15;94426.84;;;22.91;100.00
23164;BME280;31429;42.674;23.350;2023-07-20T05:04:21;94433.56;;;22.94;100.00
23164;BME280;31429;42.674;23.350;2023-07-20T05:05:22;94433.41;;;23.05;100.00
23164;BME280;31429;42.674;23.350;2023-07-20T05:06:24;94438.06;;;23.11;100.00
23164;BME280;31429;42.674;23.350;2023-07-20T05:07:26;94431.19;;;23.19;100.00
23164;BME280;31429;42.674;23.350;2023-07-20T05:08:27;94429.78;;;23.25;100.00
23164;BME280;31429;42.674;23.350;2023-07-20T05:09:28;94431.88;;;23.21;100.00
23164;BME280;31429;42.674;23.350;2023-07-20T05:10:28;94433.22;;;23.35;100.00
23164;BME280;31429;42.674;23.350;2023-07-20T05:11:29;94433.78;;;23.29;100.00
23164;BME280;31429;42.674;23.350;2023-07-20T05:12:30;94436.22;;;23.30;100.00
23164;BME280;31429;42.674;23.350;2023-07-20T05:13:30;94432.56;;;23.23;100.00
23164;BME280;31429;42.674;23.350;2023-07-20T05:14:31;94436.00;;;23.24;100.00
23164;BME280;31429;42.674;23.350;2023-07-20T05:15:33;94436.38;;;23.29;100.00
23164;BME280;31429;42.674;23.350;2023-07-20T05:16:35;94433.78;;;23.29;100.00
23164;BME280;31429;42.674;23.350;2023-07-20T05:17:35;94436.00;;;23.24;100.00
23164;BME280;31429;42.674;23.350;2023-07-20T05:18:36;94446.44;;;23.14;100.00
23164;BME280;31429;42.674;23.350;2023-07-20T05:19:36;94444.66;;;23.15;100.00
23164;BME280;31429;42.674;23.350;2023-07-20T05:20:37;94437.06;;;23.31;100.00
23164;BME280;31429;42.674;23.350;2023-07-20T05:21:39;94441.19;;;23.43;100.00
23164;BME280;31429;42.674;23.350;2023-07-20T05:22:40;94436.63;;;23.45;100.00
23164;BME280;31429;42.674;23.350;2023-07-20T05:23:40;94441.34;;;23.69;100.00
23164;BME280;31429;42.674;23.350;2023-07-20T05:24:41;94434.63;;;23.66;100.00